createdAt,value
2018-07-16T00:00:19.853Z,19.24
2018-07-16T00:01:19.924Z,19.14
2018-07-16T00:02:19.985Z,19.16
2018-07-16T00:03:20.061Z,19.12
2018-07-16T00:04:20.129Z,19.15
2018-07-16T00:05:20.187Z,19.09
2018-07-16T00:06:20.249Z,19.02
2018-07-16T00:07:20.317Z,18.95
2018-07-16T00:08:20.782Z,18.96
2018-07-16T00:09:20.449Z,18.92
2018-07-16T00:10:20.517Z,18.84
2018-07-16T00:11:20.581Z,18.78
2018-07-16T00:12:20.654Z,18.81
2018-07-16T00:13:20.713Z,18.70
2018-07-16T00:14:21.073Z,18.75
2018-07-16T00:15:20.846Z,18.63
2018-07-16T00:16:20.914Z,18.70
2018-07-16T00:17:20.977Z,18.59
2018-07-16T00:18:21.041Z,18.50
2018-07-16T00:19:21.118Z,18.53
2018-07-16T00:20:21.187Z,18.52
2018-07-16T00:21:21.242Z,18.52
2018-07-16T00:22:21.305Z,18.41
2018-07-16T00:23:21.373Z,18.53
2018-07-16T00:24:21.446Z,18.45
2018-07-16T00:25:21.514Z,18.55
2018-07-16T00:26:21.570Z,18.45
2018-07-16T00:27:21.638Z,18.49
2018-07-16T00:28:21.702Z,18.50
2018-07-16T00:29:21.778Z,18.50
2018-07-16T00:30:21.846Z,18.52
2018-07-16T00:31:21.902Z,18.47
2018-07-16T00:32:21.965Z,18.50
2018-07-16T00:33:22.034Z,18.47
2018-07-16T00:34:22.186Z,18.47
2018-07-16T00:35:22.169Z,18.47
2018-07-16T00:36:22.230Z,18.49
2018-07-16T00:37:22.298Z,18.50
2018-07-16T00:38:22.362Z,18.52
2018-07-16T00:39:22.434Z,18.47
2018-07-16T00:40:22.502Z,18.53
2018-07-16T00:41:22.565Z,18.52
2018-07-16T00:42:22.626Z,18.44
2018-07-16T00:43:22.690Z,18.41
2018-07-16T00:44:22.778Z,18.35
2018-07-16T00:45:22.830Z,18.35
2018-07-16T00:46:22.890Z,18.34
2018-07-16T00:47:22.958Z,18.41
2018-07-16T00:48:23.022Z,18.35
2018-07-16T00:49:23.104Z,18.33
2018-07-16T00:50:23.154Z,18.38
2018-07-16T00:51:23.222Z,18.28
2018-07-16T00:52:23.282Z,18.33
2018-07-16T00:53:23.352Z,18.35
2018-07-16T00:54:23.422Z,18.35
2018-07-16T00:55:23.487Z,18.28
2018-07-16T00:56:23.551Z,18.35
2018-07-16T00:57:23.619Z,18.31
2018-07-16T00:58:23.680Z,18.31
2018-07-16T00:59:23.751Z,18.37
2018-07-16T01:00:23.819Z,18.41
2018-07-16T01:01:23.875Z,18.33
2018-07-16T01:02:23.942Z,18.29
2018-07-16T01:03:24.007Z,18.18
2018-07-16T01:04:24.203Z,18.26
2018-07-16T01:05:24.139Z,18.29
2018-07-16T01:06:24.203Z,18.22
2018-07-16T01:07:24.271Z,18.16
2018-07-16T01:08:24.331Z,18.08
2018-07-16T01:09:24.407Z,18.08
2018-07-16T01:10:24.475Z,17.97
2018-07-16T01:11:24.533Z,18.03
2018-07-16T01:12:24.599Z,18.03
2018-07-16T01:13:24.663Z,17.85
2018-07-16T01:14:24.735Z,17.85
2018-07-16T01:15:24.803Z,17.97
2018-07-16T01:16:24.944Z,17.79
2018-07-16T01:17:24.939Z,17.80
2018-07-16T01:18:24.991Z,17.79
2018-07-16T01:19:25.067Z,17.85
2018-07-16T01:20:25.131Z,17.72
2018-07-16T01:21:25.191Z,17.71
2018-07-16T01:22:25.255Z,17.64
2018-07-16T01:23:25.319Z,17.68
2018-07-16T01:24:25.403Z,17.67
2018-07-16T01:25:25.459Z,17.56
2018-07-16T01:26:25.515Z,17.65
2018-07-16T01:27:25.584Z,17.60
2018-07-16T01:28:25.647Z,17.57
2018-07-16T01:29:25.719Z,17.54
2018-07-16T01:30:25.787Z,17.56
2018-07-16T01:31:25.843Z,17.49
2018-07-16T01:32:25.911Z,17.42
2018-07-16T01:33:25.977Z,17.41
2018-07-16T01:34:26.047Z,17.38
2018-07-16T01:35:26.116Z,17.34
2018-07-16T01:36:26.172Z,17.42
2018-07-16T01:37:26.240Z,17.33
2018-07-16T01:38:26.303Z,17.33
2018-07-16T01:39:26.376Z,17.29
2018-07-16T01:40:26.444Z,17.42
2018-07-16T01:41:26.502Z,17.38
2018-07-16T01:42:26.568Z,17.38
2018-07-16T01:43:26.632Z,17.34
2018-07-16T01:44:26.703Z,17.46
2018-07-16T01:45:26.772Z,17.31
2018-07-16T01:46:26.827Z,17.38
2018-07-16T01:47:26.898Z,17.41
2018-07-16T01:48:26.960Z,17.38
2018-07-16T01:49:27.032Z,17.38
2018-07-16T01:50:27.096Z,17.48
2018-07-16T01:51:27.160Z,17.49
2018-07-16T01:52:27.220Z,17.57
2018-07-16T01:53:27.288Z,17.57
2018-07-16T01:54:27.356Z,17.52
2018-07-16T01:55:27.420Z,17.52
2018-07-16T01:56:27.484Z,17.63
2018-07-16T01:57:27.548Z,17.65
2018-07-16T01:58:27.612Z,17.67
2018-07-16T01:59:27.690Z,17.78
2018-07-16T02:00:27.752Z,17.76
2018-07-16T02:01:27.808Z,17.70
2018-07-16T02:02:27.872Z,17.76
2018-07-16T02:03:27.940Z,17.82
2018-07-16T02:04:28.013Z,17.82
2018-07-16T02:05:28.077Z,17.71
2018-07-16T02:06:28.136Z,17.82
2018-07-16T02:07:28.200Z,17.82
2018-07-16T02:08:28.268Z,17.90
2018-07-16T02:09:28.341Z,17.95
2018-07-16T02:10:28.405Z,17.85
2018-07-16T02:11:28.466Z,17.83
2018-07-16T02:12:28.528Z,17.79
2018-07-16T02:13:28.596Z,17.80
2018-07-16T02:14:28.665Z,17.72
2018-07-16T02:15:28.732Z,17.72
2018-07-16T02:16:28.789Z,17.57
2018-07-16T02:17:28.857Z,17.59
2018-07-16T02:18:28.921Z,17.54
2018-07-16T02:19:28.993Z,17.41
2018-07-16T02:20:29.057Z,17.39
2018-07-16T02:21:29.117Z,17.41
2018-07-16T02:22:29.181Z,17.27
2018-07-16T02:23:29.249Z,17.29
2018-07-16T02:24:29.481Z,17.22
2018-07-16T02:25:29.377Z,17.08
2018-07-16T02:26:29.441Z,17.11
2018-07-16T02:27:29.510Z,17.04
2018-07-16T02:28:29.573Z,17.02
2018-07-16T02:29:29.645Z,16.96
2018-07-16T02:30:29.711Z,16.99
2018-07-16T02:31:29.770Z,16.93
2018-07-16T02:32:29.838Z,16.91
2018-07-16T02:33:29.908Z,16.81
2018-07-16T02:34:29.974Z,16.86
2018-07-16T02:35:30.038Z,16.81
2018-07-16T02:36:30.102Z,16.81
2018-07-16T02:37:30.161Z,16.72
2018-07-16T02:38:30.226Z,16.69
2018-07-16T02:39:30.310Z,16.69
2018-07-16T02:40:30.358Z,16.64
2018-07-16T02:41:30.422Z,16.60
2018-07-16T02:42:30.486Z,16.60
2018-07-16T02:43:30.555Z,16.66
2018-07-16T02:44:30.628Z,16.46
2018-07-16T02:45:30.692Z,16.56
2018-07-16T02:46:30.837Z,16.49
2018-07-16T02:47:30.815Z,16.50
2018-07-16T02:48:30.883Z,16.47
2018-07-16T02:49:30.951Z,16.43
2018-07-16T02:50:31.015Z,16.38
2018-07-16T02:51:31.076Z,16.42
2018-07-16T02:52:31.139Z,16.38
2018-07-16T02:53:31.211Z,16.38
2018-07-16T02:54:31.271Z,16.38
2018-07-16T02:55:31.367Z,16.33
2018-07-16T02:56:31.480Z,16.31
2018-07-16T02:57:31.477Z,16.29
2018-07-16T02:58:31.531Z,16.33
2018-07-16T02:59:31.595Z,16.32
2018-07-16T03:00:31.667Z,16.33
2018-07-16T03:01:31.735Z,16.31
2018-07-16T03:02:31.792Z,16.24
2018-07-16T03:03:31.856Z,16.26
2018-07-16T03:04:31.924Z,16.15
2018-07-16T03:05:31.995Z,16.28
2018-07-16T03:06:32.061Z,16.21
2018-07-16T03:07:32.116Z,16.26
2018-07-16T03:08:32.194Z,16.23
2018-07-16T03:09:32.250Z,16.21
2018-07-16T03:10:32.435Z,16.23
2018-07-16T03:11:32.376Z,16.17
2018-07-16T03:12:32.444Z,16.17
2018-07-16T03:13:32.508Z,16.21
2018-07-16T03:14:32.571Z,16.09
2018-07-16T03:15:32.644Z,16.13
2018-07-16T03:16:32.712Z,16.15
2018-07-16T03:17:32.768Z,16.12
2018-07-16T03:18:32.832Z,16.05
2018-07-16T03:19:32.900Z,16.09
2018-07-16T03:20:32.968Z,16.01
2018-07-16T03:21:33.032Z,16.01
2018-07-16T03:22:33.092Z,16.08
2018-07-16T03:23:33.156Z,16.01
2018-07-16T03:24:33.220Z,16.02
2018-07-16T03:25:33.589Z,16.02
2018-07-16T03:26:33.352Z,15.98
2018-07-16T03:27:33.416Z,15.97
2018-07-16T03:28:33.492Z,16.00
2018-07-16T03:29:33.548Z,16.02
2018-07-16T03:30:33.616Z,16.00
2018-07-16T03:31:33.685Z,16.00
2018-07-16T03:32:33.740Z,15.95
2018-07-16T03:33:33.804Z,15.95
2018-07-16T03:34:33.868Z,15.98
2018-07-16T03:35:33.944Z,15.86
2018-07-16T03:36:34.009Z,15.84
2018-07-16T03:37:34.066Z,15.88
2018-07-16T03:38:34.128Z,15.90
2018-07-16T03:39:34.196Z,15.88
2018-07-16T03:40:34.571Z,15.92
2018-07-16T03:41:34.326Z,15.86
2018-07-16T03:42:34.390Z,15.86
2018-07-16T03:43:34.456Z,15.86
2018-07-16T03:44:34.520Z,15.88
2018-07-16T03:45:34.592Z,15.90
2018-07-16T03:46:34.657Z,15.90
2018-07-16T03:47:34.715Z,15.90
2018-07-16T03:48:34.780Z,15.91
2018-07-16T03:49:34.874Z,15.88
2018-07-16T03:50:34.913Z,15.88
2018-07-16T03:51:34.980Z,15.88
2018-07-16T03:52:35.037Z,15.86
2018-07-16T03:53:35.105Z,15.88
2018-07-16T03:54:35.169Z,15.90
2018-07-16T03:55:35.233Z,15.86
2018-07-16T03:56:35.557Z,15.86
2018-07-16T03:57:35.364Z,15.84
2018-07-16T03:58:35.425Z,15.91
2018-07-16T03:59:35.492Z,15.82
2018-07-16T04:00:35.558Z,15.88
2018-07-16T04:01:35.660Z,15.88
2018-07-16T04:02:35.693Z,15.95
2018-07-16T04:03:35.753Z,15.82
2018-07-16T04:04:35.817Z,15.84
2018-07-16T04:05:35.881Z,15.91
2018-07-16T04:06:35.953Z,15.90
2018-07-16T04:07:36.018Z,15.86
2018-07-16T04:08:36.073Z,15.84
2018-07-16T04:09:36.141Z,16.08
2018-07-16T04:10:36.205Z,15.95
2018-07-16T04:11:36.381Z,15.97
2018-07-16T04:12:36.333Z,16.00
2018-07-16T04:13:36.401Z,16.00
2018-07-16T04:14:36.465Z,15.98
2018-07-16T04:15:36.529Z,16.01
2018-07-16T04:16:36.602Z,15.98
2018-07-16T04:17:36.666Z,16.02
2018-07-16T04:18:36.721Z,16.08
2018-07-16T04:19:36.790Z,16.08
2018-07-16T04:20:36.853Z,16.09
2018-07-16T04:21:36.930Z,16.13
2018-07-16T04:22:36.991Z,16.08
2018-07-16T04:23:37.046Z,16.15
2018-07-16T04:24:37.114Z,16.15
2018-07-16T04:25:37.178Z,16.26
2018-07-16T04:26:37.351Z,16.28
2018-07-16T04:27:37.306Z,16.20
2018-07-16T04:28:37.370Z,16.29
2018-07-16T04:29:37.510Z,16.29
2018-07-16T04:30:37.504Z,16.28
2018-07-16T04:31:37.574Z,16.26
2018-07-16T04:32:37.638Z,16.32
2018-07-16T04:33:37.698Z,16.35
2018-07-16T04:34:37.762Z,16.38
2018-07-16T04:35:37.826Z,16.42
2018-07-16T04:36:37.894Z,16.42
2018-07-16T04:37:37.967Z,16.49
2018-07-16T04:38:38.019Z,16.42
2018-07-16T04:39:38.086Z,16.50
2018-07-16T04:40:38.155Z,16.51
2018-07-16T04:41:38.234Z,16.56
2018-07-16T04:42:38.279Z,16.50
2018-07-16T04:43:38.347Z,16.65
2018-07-16T04:44:38.414Z,16.61
2018-07-16T04:45:38.475Z,16.71
2018-07-16T04:46:38.542Z,16.71
2018-07-16T04:47:38.610Z,16.65
2018-07-16T04:48:38.670Z,16.76
2018-07-16T04:49:38.734Z,16.72
2018-07-16T04:50:38.799Z,16.79
2018-07-16T04:51:38.870Z,16.86
2018-07-16T04:52:38.934Z,16.86
2018-07-16T04:53:38.994Z,16.90
2018-07-16T04:54:39.058Z,16.97
2018-07-16T04:55:39.122Z,16.96
2018-07-16T04:56:39.223Z,16.96
2018-07-16T04:57:39.255Z,17.08
2018-07-16T04:58:39.324Z,17.06
2018-07-16T04:59:39.382Z,17.09
2018-07-16T05:00:39.450Z,17.12
2018-07-16T05:01:39.530Z,17.22
2018-07-16T05:02:39.587Z,17.23
2018-07-16T05:03:39.646Z,17.19
2018-07-16T05:04:39.710Z,17.33
2018-07-16T05:05:39.775Z,17.29
2018-07-16T05:06:39.847Z,17.29
2018-07-16T05:07:39.910Z,17.46
2018-07-16T05:08:39.970Z,17.52
2018-07-16T05:09:40.035Z,17.59
2018-07-16T05:10:40.103Z,17.71
2018-07-16T05:11:40.191Z,17.76
2018-07-16T05:12:40.231Z,17.82
2018-07-16T05:13:40.295Z,17.83
2018-07-16T05:14:40.359Z,17.85
2018-07-16T05:15:40.427Z,17.97
2018-07-16T05:16:40.499Z,18.01
2018-07-16T05:17:40.564Z,18.13
2018-07-16T05:18:40.619Z,18.05
2018-07-16T05:19:40.688Z,18.18
2018-07-16T05:20:40.751Z,18.16
2018-07-16T05:21:40.824Z,18.20
2018-07-16T05:22:40.887Z,18.35
2018-07-16T05:23:40.948Z,18.40
2018-07-16T05:24:41.012Z,18.40
2018-07-16T05:25:41.079Z,18.43
2018-07-16T05:26:41.144Z,18.53
2018-07-16T05:27:41.228Z,18.44
2018-07-16T05:28:41.276Z,18.55
2018-07-16T05:29:41.340Z,18.45
2018-07-16T05:30:41.404Z,18.49
2018-07-16T05:31:41.540Z,18.53
2018-07-16T05:32:41.801Z,18.59
2018-07-16T05:33:41.608Z,18.63
2018-07-16T05:34:41.664Z,18.60
2018-07-16T05:35:41.732Z,18.77
2018-07-16T05:36:41.796Z,18.80
2018-07-16T05:37:41.868Z,18.80
2018-07-16T05:38:41.938Z,18.95
2018-07-16T05:39:41.992Z,18.88
2018-07-16T05:40:42.064Z,18.92
2018-07-16T05:41:42.131Z,18.96
2018-07-16T05:42:42.221Z,18.98
2018-07-16T05:43:42.256Z,19.14
2018-07-16T05:44:42.323Z,19.00
2018-07-16T05:45:42.389Z,19.14
2018-07-16T05:46:42.453Z,19.22
2018-07-16T05:47:42.525Z,19.21
2018-07-16T05:48:42.589Z,19.18
2018-07-16T05:49:42.651Z,19.22
2018-07-16T05:50:42.733Z,19.19
2018-07-16T05:51:42.780Z,19.27
2018-07-16T05:52:42.852Z,19.22
2018-07-16T05:53:42.917Z,19.24
2018-07-16T05:54:42.977Z,19.30
2018-07-16T05:55:43.042Z,19.30
2018-07-16T05:56:43.105Z,19.39
2018-07-16T05:57:43.197Z,19.37
2018-07-16T05:58:43.237Z,19.36
2018-07-16T05:59:43.305Z,19.45
2018-07-16T06:00:43.369Z,19.41
2018-07-16T06:01:43.439Z,19.55
2018-07-16T06:02:43.505Z,19.51
2018-07-16T06:03:43.573Z,19.63
2018-07-16T06:04:43.633Z,19.66
2018-07-16T06:05:43.697Z,19.74
2018-07-16T06:06:43.761Z,19.77
2018-07-16T06:07:43.839Z,19.86
2018-07-16T06:08:43.934Z,19.96
2018-07-16T06:09:43.961Z,19.94
2018-07-16T06:10:44.026Z,20.02
2018-07-16T06:11:44.094Z,19.92
2018-07-16T06:12:44.305Z,20.09
2018-07-16T06:13:44.225Z,20.09
2018-07-16T06:14:44.294Z,20.10
2018-07-16T06:15:44.354Z,20.09
2018-07-16T06:16:44.486Z,20.25
2018-07-16T06:17:44.561Z,20.29
2018-07-16T06:18:44.558Z,20.37
2018-07-16T06:19:44.618Z,20.34
2018-07-16T06:20:44.686Z,20.37
2018-07-16T06:21:44.750Z,20.50
2018-07-16T06:22:44.822Z,20.50
2018-07-16T06:23:44.890Z,20.59
2018-07-16T06:24:44.951Z,20.66
2018-07-16T06:25:45.021Z,20.82
2018-07-16T06:26:45.083Z,21.48
2018-07-16T06:27:45.322Z,22.28
2018-07-16T06:28:45.214Z,23.39
2018-07-16T06:29:45.282Z,24.35
2018-07-16T06:30:45.350Z,25.14
2018-07-16T06:31:45.419Z,26.02
2018-07-16T06:32:45.494Z,26.58
2018-07-16T06:33:45.562Z,27.25
2018-07-16T06:34:45.627Z,27.65
2018-07-16T06:35:45.702Z,28.22
2018-07-16T06:36:45.770Z,28.81
2018-07-16T06:37:45.847Z,29.22
2018-07-16T06:38:45.919Z,29.71
2018-07-16T06:39:46.117Z,30.05
2018-07-16T06:40:46.280Z,30.48
2018-07-16T06:41:46.135Z,30.91
2018-07-16T06:42:46.319Z,31.18
2018-07-16T06:43:46.287Z,31.62
2018-07-16T06:44:46.387Z,31.97
2018-07-16T06:45:46.441Z,32.14
2018-07-16T06:46:46.531Z,32.34
2018-07-16T06:47:46.665Z,32.52
2018-07-16T06:48:46.679Z,32.70
2018-07-16T06:49:46.747Z,32.92
2018-07-16T06:50:46.827Z,33.09
2018-07-16T06:51:46.903Z,33.24
2018-07-16T06:52:46.991Z,33.28
2018-07-16T06:53:47.071Z,33.19
2018-07-16T06:54:47.139Z,33.46
2018-07-16T06:55:47.231Z,33.62
2018-07-16T06:56:47.308Z,33.77
2018-07-16T06:57:47.379Z,33.50
2018-07-16T06:58:47.576Z,33.42
2018-07-16T06:59:47.540Z,33.69
2018-07-16T07:00:47.620Z,33.89
2018-07-16T07:01:47.699Z,33.79
2018-07-16T07:02:47.780Z,33.94
2018-07-16T07:03:47.888Z,34.13
2018-07-16T07:04:47.947Z,34.06
2018-07-16T07:05:48.031Z,34.18
2018-07-16T07:06:48.107Z,34.24
2018-07-16T07:07:48.184Z,34.13
2018-07-16T07:08:48.280Z,34.23
2018-07-16T07:09:48.352Z,34.51
2018-07-16T07:10:48.428Z,34.60
2018-07-16T07:11:48.508Z,34.61
2018-07-16T07:12:48.592Z,34.50
2018-07-16T07:13:48.680Z,34.70
2018-07-16T07:14:48.760Z,34.78
2018-07-16T07:15:48.836Z,35.04
2018-07-16T07:16:48.916Z,35.10
2018-07-16T07:17:49.003Z,35.17
2018-07-16T07:18:49.328Z,35.26
2018-07-16T07:19:49.165Z,35.15
2018-07-16T07:20:49.244Z,35.23
2018-07-16T07:21:49.329Z,35.37
2018-07-16T07:22:49.412Z,35.49
2018-07-16T07:23:49.496Z,35.61
2018-07-16T07:24:49.580Z,35.63
2018-07-16T07:25:49.657Z,35.74
2018-07-16T07:26:49.737Z,35.52
2018-07-16T07:27:49.821Z,35.52
2018-07-16T07:28:49.909Z,35.67
2018-07-16T07:29:49.993Z,35.37
2018-07-16T07:30:50.069Z,35.37
2018-07-16T07:31:50.149Z,35.30
2018-07-16T07:32:50.233Z,35.51
2018-07-16T07:33:50.317Z,35.56
2018-07-16T07:34:50.557Z,35.95
2018-07-16T07:35:50.519Z,36.24
2018-07-16T07:36:50.565Z,36.58
2018-07-16T07:37:50.645Z,37.10
2018-07-16T07:38:50.729Z,37.15
2018-07-16T07:39:50.817Z,37.18
2018-07-16T07:40:50.897Z,37.33
2018-07-16T07:41:50.977Z,37.33
2018-07-16T07:42:51.057Z,37.42
2018-07-16T07:43:51.148Z,37.37
2018-07-16T07:44:51.349Z,37.40
2018-07-16T07:45:51.309Z,37.72
2018-07-16T07:46:51.389Z,37.72
2018-07-16T07:47:51.473Z,37.51
2018-07-16T07:48:51.557Z,37.18
2018-07-16T07:49:51.645Z,37.21
2018-07-16T07:50:51.729Z,36.95
2018-07-16T07:51:51.809Z,36.99
2018-07-16T07:52:51.894Z,37.26
2018-07-16T07:53:51.970Z,37.06
2018-07-16T07:54:52.419Z,36.79
2018-07-16T07:55:52.141Z,37.06
2018-07-16T07:56:52.219Z,37.06
2018-07-16T07:57:52.304Z,37.32
2018-07-16T07:58:52.382Z,37.33
2018-07-16T07:59:52.474Z,37.26
2018-07-16T08:00:52.558Z,37.49
2018-07-16T08:01:52.633Z,37.42
2018-07-16T08:02:52.713Z,36.86
2018-07-16T08:03:52.798Z,37.07
2018-07-16T08:04:52.886Z,37.29
2018-07-16T08:05:52.974Z,37.29
2018-07-16T08:06:53.042Z,37.11
2018-07-16T08:07:53.126Z,37.40
2018-07-16T08:08:53.210Z,37.26
2018-07-16T08:09:53.292Z,37.40
2018-07-16T08:10:53.534Z,37.49
2018-07-16T08:11:53.458Z,37.74
2018-07-16T08:12:53.538Z,37.59
2018-07-16T08:13:53.698Z,37.47
2018-07-16T08:14:53.702Z,37.37
2018-07-16T08:15:53.796Z,37.33
2018-07-16T08:16:53.875Z,37.44
2018-07-16T08:17:53.950Z,37.78
2018-07-16T08:18:54.034Z,37.78
2018-07-16T08:19:54.115Z,37.36
2018-07-16T08:20:54.530Z,37.47
2018-07-16T08:21:54.278Z,37.77
2018-07-16T08:22:54.363Z,37.99
2018-07-16T08:23:54.446Z,38.04
2018-07-16T08:24:54.531Z,37.53
2018-07-16T08:25:54.618Z,37.36
2018-07-16T08:26:54.700Z,37.49
2018-07-16T08:27:54.776Z,37.49
2018-07-16T08:28:54.868Z,37.65
2018-07-16T08:29:54.939Z,37.51
2018-07-16T08:30:55.057Z,37.77
2018-07-16T08:31:55.115Z,37.87
2018-07-16T08:32:55.187Z,37.82
2018-07-16T08:33:55.268Z,37.80
2018-07-16T08:34:55.352Z,37.59
2018-07-16T08:35:55.439Z,37.64
2018-07-16T08:36:55.519Z,37.55
2018-07-16T08:37:55.602Z,37.39
2018-07-16T08:38:55.682Z,37.55
2018-07-16T08:39:55.759Z,37.67
2018-07-16T08:40:55.851Z,37.99
2018-07-16T08:41:55.931Z,37.97
2018-07-16T08:42:56.008Z,38.24
2018-07-16T08:43:56.088Z,38.34
2018-07-16T08:44:56.171Z,38.15
2018-07-16T08:45:56.276Z,37.97
2018-07-16T08:46:56.336Z,37.86
2018-07-16T08:47:56.416Z,38.05
2018-07-16T08:48:56.499Z,38.08
2018-07-16T08:49:56.580Z,37.96
2018-07-16T08:50:56.668Z,37.74
2018-07-16T08:51:56.759Z,37.94
2018-07-16T08:52:56.828Z,37.87
2018-07-16T08:53:56.907Z,37.89
2018-07-16T08:54:56.987Z,37.58
2018-07-16T08:55:57.224Z,37.70
2018-07-16T08:56:57.156Z,37.45
2018-07-16T08:57:57.236Z,37.55
2018-07-16T08:58:57.316Z,37.59
2018-07-16T08:59:57.396Z,37.64
2018-07-16T09:00:57.483Z,37.55
2018-07-16T09:01:57.564Z,37.74
2018-07-16T09:02:57.640Z,37.11
2018-07-16T09:03:57.781Z,37.14
2018-07-16T09:04:57.800Z,37.35
2018-07-16T09:05:57.888Z,37.39
2018-07-16T09:06:57.975Z,37.74
2018-07-16T09:07:58.044Z,38.05
2018-07-16T09:08:58.133Z,38.17
2018-07-16T09:09:58.204Z,37.93
2018-07-16T09:10:58.314Z,37.86
2018-07-16T09:11:58.678Z,37.84
2018-07-16T09:12:58.448Z,37.64
2018-07-16T09:13:58.528Z,37.86
2018-07-16T09:14:58.608Z,38.06
2018-07-16T09:15:58.700Z,37.63
2018-07-16T09:16:58.864Z,37.14
2018-07-16T09:17:58.860Z,37.18
2018-07-16T09:18:58.932Z,37.11
2018-07-16T09:19:59.008Z,37.36
2018-07-16T09:20:59.095Z,37.36
2018-07-16T09:21:59.329Z,37.37
2018-07-16T09:22:59.252Z,37.51
2018-07-16T09:23:59.328Z,37.53
2018-07-16T09:24:59.464Z,37.48
2018-07-16T09:25:59.493Z,37.47
2018-07-16T09:26:59.580Z,37.48
2018-07-16T09:27:59.656Z,37.32
2018-07-16T09:28:59.729Z,37.30
2018-07-16T09:29:59.808Z,37.02
2018-07-16T09:30:59.894Z,37.08
2018-07-16T09:31:59.976Z,37.13
2018-07-16T09:33:00.057Z,37.13
2018-07-16T09:34:00.133Z,36.86
2018-07-16T09:35:00.209Z,36.42
2018-07-16T09:36:00.284Z,36.20
2018-07-16T09:37:00.388Z,35.79
2018-07-16T09:38:00.444Z,35.73
2018-07-16T09:39:00.576Z,35.82
2018-07-16T09:40:00.606Z,35.79
2018-07-16T09:41:00.681Z,35.97
2018-07-16T09:42:00.771Z,36.17
2018-07-16T09:43:00.845Z,36.14
2018-07-16T09:44:00.921Z,35.76
2018-07-16T09:45:01.001Z,35.52
2018-07-16T09:46:01.082Z,35.70
2018-07-16T09:47:01.468Z,35.92
2018-07-16T09:48:01.233Z,35.97
2018-07-16T09:49:01.313Z,36.21
2018-07-16T09:50:01.390Z,36.28
2018-07-16T09:51:01.469Z,36.39
2018-07-16T09:52:01.554Z,36.35
2018-07-16T09:53:01.633Z,36.58
2018-07-16T09:54:01.765Z,36.62
2018-07-16T09:55:01.783Z,36.52
2018-07-16T09:56:01.890Z,36.47
2018-07-16T09:57:01.953Z,36.36
2018-07-16T09:58:02.025Z,35.90
2018-07-16T09:59:02.094Z,35.92
2018-07-16T10:00:02.173Z,35.53
2018-07-16T10:01:02.249Z,35.24
2018-07-16T10:02:02.329Z,35.30
2018-07-16T10:03:02.434Z,35.44
2018-07-16T10:04:02.482Z,35.36
2018-07-16T10:05:02.564Z,35.49
2018-07-16T10:06:02.638Z,35.67
2018-07-16T10:07:02.716Z,35.71
2018-07-16T10:08:02.800Z,35.74
2018-07-16T10:09:02.878Z,36.01
2018-07-16T10:10:02.958Z,35.86
2018-07-16T10:11:03.026Z,35.80
2018-07-16T10:12:03.102Z,35.76
2018-07-16T10:13:03.182Z,35.73
2018-07-16T10:14:03.406Z,35.83
2018-07-16T10:15:03.336Z,36.09
2018-07-16T10:16:03.410Z,35.44
2018-07-16T10:17:03.494Z,34.38
2018-07-16T10:18:03.566Z,34.78
2018-07-16T10:19:03.650Z,35.15
2018-07-16T10:20:03.792Z,35.42
2018-07-16T10:21:03.795Z,35.49
2018-07-16T10:22:03.875Z,35.24
2018-07-16T10:23:03.946Z,34.95
2018-07-16T10:24:04.035Z,34.92
2018-07-16T10:25:04.107Z,35.04
2018-07-16T10:26:04.179Z,35.11
2018-07-16T10:27:04.255Z,35.19
2018-07-16T10:28:04.335Z,35.37
2018-07-16T10:29:04.423Z,35.33
2018-07-16T10:30:04.523Z,35.41
2018-07-16T10:31:04.559Z,35.46
2018-07-16T10:32:04.642Z,35.53
2018-07-16T10:33:04.719Z,35.67
2018-07-16T10:34:04.801Z,35.76
2018-07-16T10:35:04.872Z,35.46
2018-07-16T10:36:04.948Z,35.49
2018-07-16T10:37:05.018Z,35.02
2018-07-16T10:38:05.097Z,34.39
2018-07-16T10:39:05.468Z,34.66
2018-07-16T10:40:05.250Z,34.78
2018-07-16T10:41:05.320Z,35.12
2018-07-16T10:42:05.396Z,35.27
2018-07-16T10:43:05.475Z,35.34
2018-07-16T10:44:05.556Z,35.23
2018-07-16T10:45:05.641Z,35.17
2018-07-16T10:46:05.703Z,34.86
2018-07-16T10:47:05.776Z,34.85
2018-07-16T10:48:05.852Z,34.57
2018-07-16T10:49:05.932Z,34.70
2018-07-16T10:50:06.008Z,34.70
2018-07-16T10:51:06.080Z,34.64
2018-07-16T10:52:06.152Z,34.27
2018-07-16T10:53:06.228Z,34.35
2018-07-16T10:54:06.316Z,34.48
2018-07-16T10:55:06.448Z,34.64
2018-07-16T10:56:06.457Z,34.83
2018-07-16T10:57:06.533Z,34.60
2018-07-16T10:58:06.600Z,34.43
2018-07-16T10:59:06.684Z,34.48
2018-07-16T11:00:06.763Z,34.35
2018-07-16T11:01:06.836Z,33.96
2018-07-16T11:02:06.908Z,34.01
2018-07-16T11:03:07.063Z,33.80
2018-07-16T11:04:07.056Z,33.79
2018-07-16T11:05:07.240Z,33.95
2018-07-16T11:06:07.208Z,33.87
2018-07-16T11:07:07.280Z,33.98
2018-07-16T11:08:07.377Z,33.87
2018-07-16T11:09:07.432Z,33.61
2018-07-16T11:10:07.512Z,33.61
2018-07-16T11:11:07.588Z,33.62
2018-07-16T11:12:07.659Z,33.52
2018-07-16T11:13:07.732Z,33.52
2018-07-16T11:14:07.805Z,33.57
2018-07-16T11:15:08.031Z,33.65
2018-07-16T11:16:07.963Z,33.65
2018-07-16T11:17:08.029Z,33.67
2018-07-16T11:18:08.105Z,33.73
2018-07-16T11:19:08.177Z,33.83
2018-07-16T11:20:08.269Z,33.98
2018-07-16T11:21:08.329Z,33.95
2018-07-16T11:22:08.401Z,33.89
2018-07-16T11:23:08.477Z,33.84
2018-07-16T11:24:08.549Z,33.99
2018-07-16T11:25:08.637Z,34.11
2018-07-16T11:26:08.705Z,34.05
2018-07-16T11:27:08.777Z,34.29
2018-07-16T11:28:08.853Z,34.30
2018-07-16T11:29:08.925Z,34.21
2018-07-16T11:30:09.004Z,34.25
2018-07-16T11:31:09.077Z,34.32
2018-07-16T11:32:09.145Z,34.36
2018-07-16T11:33:09.225Z,34.30
2018-07-16T11:34:09.293Z,34.23
2018-07-16T11:35:09.377Z,34.16
2018-07-16T11:36:09.465Z,33.68
2018-07-16T11:37:09.521Z,33.95
2018-07-16T11:38:09.593Z,34.08
2018-07-16T11:39:09.665Z,33.98
2018-07-16T11:40:09.753Z,34.06
2018-07-16T11:41:09.821Z,34.16
2018-07-16T11:42:09.889Z,34.20
2018-07-16T11:43:09.965Z,34.39
2018-07-16T11:44:10.038Z,34.35
2018-07-16T11:45:10.142Z,34.30
2018-07-16T11:46:10.202Z,34.52
2018-07-16T11:47:10.261Z,34.57
2018-07-16T11:48:10.342Z,34.32
2018-07-16T11:49:10.410Z,34.43
2018-07-16T11:50:10.494Z,34.61
2018-07-16T11:51:10.566Z,34.74
2018-07-16T11:52:10.654Z,34.83
2018-07-16T11:53:10.711Z,34.97
2018-07-16T11:54:10.782Z,35.05
2018-07-16T11:55:10.861Z,35.11
2018-07-16T11:56:10.942Z,35.07
2018-07-16T11:57:11.006Z,35.10
2018-07-16T11:58:11.082Z,35.08
2018-07-16T11:59:11.205Z,35.10
2018-07-16T12:00:11.390Z,34.93
2018-07-16T12:01:11.302Z,34.80
2018-07-16T12:02:11.378Z,34.58
2018-07-16T12:03:11.456Z,34.50
2018-07-16T12:04:11.530Z,34.55
2018-07-16T12:05:11.627Z,34.47
2018-07-16T12:06:11.686Z,34.43
2018-07-16T12:07:11.754Z,34.25
2018-07-16T12:08:11.826Z,34.27
2018-07-16T12:09:11.902Z,34.21
2018-07-16T12:10:11.982Z,34.33
2018-07-16T12:11:12.055Z,34.38
2018-07-16T12:12:12.149Z,34.54
2018-07-16T12:13:12.198Z,34.66
2018-07-16T12:14:12.274Z,34.71
2018-07-16T12:15:12.347Z,34.85
2018-07-16T12:16:12.726Z,34.81
2018-07-16T12:17:12.515Z,34.83
2018-07-16T12:18:12.571Z,34.77
2018-07-16T12:19:12.651Z,34.66
2018-07-16T12:20:12.722Z,34.60
2018-07-16T12:21:12.799Z,34.45
2018-07-16T12:22:12.874Z,34.48
2018-07-16T12:23:12.990Z,34.48
2018-07-16T12:24:13.019Z,34.66
2018-07-16T12:25:13.091Z,34.81
2018-07-16T12:26:13.419Z,34.97
2018-07-16T12:27:13.239Z,35.08
2018-07-16T12:28:13.316Z,35.14
2018-07-16T12:29:13.391Z,35.30
2018-07-16T12:30:13.463Z,34.95
2018-07-16T12:31:13.544Z,35.02
2018-07-16T12:32:13.619Z,35.05
2018-07-16T12:33:13.691Z,35.12
2018-07-16T12:34:13.763Z,35.08
2018-07-16T12:35:13.835Z,35.24
2018-07-16T12:36:13.920Z,35.05
2018-07-16T12:37:13.995Z,34.96
2018-07-16T12:38:14.061Z,34.83
2018-07-16T12:39:14.135Z,34.86
2018-07-16T12:40:14.211Z,34.99
2018-07-16T12:41:14.396Z,34.54
2018-07-16T12:42:14.359Z,34.58
2018-07-16T12:43:14.432Z,34.33
2018-07-16T12:44:14.507Z,34.29
2018-07-16T12:45:14.584Z,34.20
2018-07-16T12:46:14.664Z,34.29
2018-07-16T12:47:14.735Z,34.38
2018-07-16T12:48:14.879Z,34.39
2018-07-16T12:49:14.880Z,34.48
2018-07-16T12:50:14.956Z,34.43
2018-07-16T12:51:15.036Z,34.32
2018-07-16T12:52:15.108Z,34.38
2018-07-16T12:53:15.180Z,34.47